Portada
Imágenes satélite Pronóstico 15 díasClimaPredicción Marítima Ciclones Rayo AeropuertosFAQ Noticias Acerca
El tiempo : Europa África América del Norte América del Sur Asia Australia-Oceanía Otros
Idiomas Contacto

Tarbes Lourdes, Francia

Ossun

latitud: 43-11N, longitud: 000-00W, altitud: 379 m


METAR: LFBT 020400Z AUTO 17003KT 9999 NSC 12/11 Q1018
short-TAF: expira (34180 horas)
long-TAF: LFBT 011700Z 0118/0218 01005KT CAVOK

Hora: 06:13 (04:13 UTC)

Observación

El informe se hizo hace 13 minutos, a las 04:00 UTC  
Viento 03 kt del sur
Temperatura 12°C
Humedad 94%
Presión 1018 hPa
Visibilidad 10 km o más

Cambiar las unidades

Pronóstico

El informe se hizo hace 10 horas y 58 minutos, a las 17:15 UTC  
Pronóstico válido del 01 a las 18 UTC al 02 a las 18 UTC
Viento 05 kt del norte
Visibilidad 10 km o más
sin nubes por debajo de 1500 m y sin presencia de cumulonimbus.
La información que se ofrece en estas páginas está sujeta a una cláusula de exención de responsabilidad
El tiempo : Europa África América del Norte América del Sur Asia Australia-Oceanía Otros
Imágenes satélite Pronóstico 15 díasClimaPredicción Marítima Ciclones Rayo AeropuertosFAQ Idiomas Contacto Noticias Acerca